maandag 22 oktober 2018 | Home | Bestenlijsten | Bestenlijsten NL | Calculator eindtijd | Nieuws | Uitslagen | Videos | Wedstrijden | VZA Ranglijsten | Weer |
 
 
Recent nieuws meer nieuws
12-10: Het zwarte gat na de marathon.
10-10: Flandrien Willem van Schuerbeeck kwam, zag en overwon in 16e Kustmarathon
08-10: Belg Van Schuerbeeck soleert naar zege in Kustmarathon
05-10: Te hard van stapel lopen, vooral in de marathon, resulteert vaak in een domper
03-10: Poolse Kustmarathonwinnaar komt weer op vakantie
27-09: De “reactieterreur” van JaRo
Wedstrijdagenda meer wedstrijden
vr 26-10: 3e Halloween Run Middelburg
za 27-10: 17e Piet Spruit Memorial Loop Sluiskil
za 27-10: 7e Stelleplascross Heinkenszand
zo 28-10: 36e Marathon Brabant Etten-Leur
za 03-11: Appelloop Axel
za 03-11: 33e Moerschanscross Hulst
zo 04-11: 8e Trail By The Sea Renesse
za 10-11: Jeff Thuy Memorial Heikant
za 10-11: 51e Mosselloop Westenschouwen
za 17-11: Juul Van De Walleloop Kieldrecht
za 17-11: 18e Hobbeldebobbelloop Zoutelande
za 24-11: 33e Elderschanscross Aardenburg
zo 25-11: 19e Zakloop Nisse
Recente uitslagen meer uitslagen
za 20-10: Hulsterloo Loop Nieuw-Namen (107)
za 20-10: 57e Singelloop Middelburg
za 06-10: 16e Kustmarathon Zoutelande
vr 05-10: 11e Ladiesrun Zoutelande
za 29-09: 10 Miles Philippine (101)
vr 28-09: Pump-up Run 10k Middelburg (47)
zo 23-09: 2e Kraaieloop Lewedorp (51)
za 22-09: Bamisrun Kloosterzande (127)
vr 21-09: Vaart van Vlissingen (166)
za 15-09: 2e Bosse Pielenloop Vogelwaarde (79)
za 15-09: 15e Tielemanloop Middelharnis
vr 14-09: 23e Stadsloop Goes (188)
za 08-09: 5e d'Ossekoppenloop Ossenisse (133)
 
Zoek tenminste met 3 tekens van wedstrijd, datum, plaats of atleet
Kriekeloop
Clinge, zaterdag 16 december 2017 - Organisatie: VV Clinge
13.8 km
PltsNaam
Tijdkm/umin/km
1  Jette SamsonBerlare50.02Mse   16.549  3:38
2  Sander PostTerneuzen51.32M35   16.067  3:44
3  Sander van DoornTerneuzen53.41Mse   15.424  3:53
4  Gino van BroeckTemse53.57M35   15.348  3:55
5  Wim VercruyssenNieuw-Namen56.47M45   14.582  4:07
6  Jan VermeulenClinge58.04M50   14.259  4:12
7  Matti BuysseStekene1.00.44Mse   13.633  4:24
8  Jeroen van GoethemKloosterzande1.00.47Mse   13.622  4:24
9  Jeroen van DijkKloosterzande1.01.09M35   13.540  4:26
10  Marnix van den BrandeClinge1.01.50Mse   13.391  4:29
11  Geerd De RyckStekene1.03.06M60   13.122  4:34
12  Eddy de CaluweOssenisse1.04.29M50   12.841  4:40
13  Jos WijnsHallaar1.04.43M65   12.794  4:41
14  Hedwig van BeverenMoerbeke1.04.44M50   12.791  4:41
15  Frank BoerebachHoek1.05.09M55   12.709  4:43
16  Saskia VercammenSint-Niklaas1.05.27V40   12.651  4:45
17  Ronny GeleynVerrebroek1.06.41M40   12.417  4:50
18  Ingrid IJsebaertHulst1.07.05V50   12.343  4:52
19  Michiel LippensMoerbeke1.07.27Mse   12.276  4:53
20  Koen KoutstaalHulst1.08.09M60   12.150  4:56
21  Albert van BunderDe Klinge1.08.35M70   12.073  4:58
22  Pascal van HulleMaldegem1.11.09M50   11.637  5:09
23  Frank van AertselaereBurcht1.11.17M55   11.616  5:10
24  Bjorn de BetueSint Jansteen1.11.19M40   11.610  5:10
25  Ben van der KaaRilland1.11.27M50   11.589  5:11
26  Piet PijpelinkTerneuzen1.11.29M50   11.583  5:11
27  Age BaltHulst1.11.37M50   11.562  5:11
28  Renate van HuffelSint Jansteen1.11.46V40   11.537  5:12
29  Sjaak VroonlandLamswaarde1.11.50M60   11.527  5:12
30  Frans VerwilligenHulst1.14.41M60   11.087  5:25
31  Fons de RijckeKloosterzande1.14.45M50   11.077  5:25
32  Bart JanssensMelsele1.14.48M45   11.070  5:25
33  Tony DemaretSint-Kruis-Winkel1.15.01M50   11.038  5:26
34  Jack FolkersmaTerneuzen1.16.58M45   10.758  5:35
35  Marian van DammeClinge1.17.00V50   10.753  5:35
36  Sofie SegersTerhole1.17.11V40   10.728  5:36
37  Els ZweistraTerneuzen1.18.17V55   10.577  5:40
38  Alex van LeuvenSint Jansteen1.18.20M55   10.570  5:41
39  Ko de KoeyerZaamslag1.18.22M70   10.566  5:41
40  Mia ClijmansVosselaar1.20.12V50   10.324  5:49
41  Rudy Vande VeldeWachtebeke1.21.40M45   10.139  5:55
42  Linda van GoolSint-Kruis-Winkel1.21.54V45   10.110  5:56
43  Nienke BoogmansMoerbeke1.24.21Vse   9.816  6:07
44  Erik BollemanAxel1.25.35M45   9.675  6:12
45  Kylie de BeuleHeikant1.25.37Vse   9.671  6:12
46  Karin de BeuleHeikant1.25.38V45   9.669  6:12
47  Kimberly van WaesbergheSint-Pauwels1.29.48Vse   9.220  6:30
48  Tommy DevosHaasdonk1.29.50M35   9.217  6:31
49  Romain BolssensKieldrecht1.31.12M60   9.079  6:37
Mannen: 37 (75.51%) => M35=4 - M40=2 - M45=5 - M50=9 - M55=3 - M60=5 - M65=1 - M70=2 - Mse=6
Vrouwen: 12 (24.49%) => V40=3 - V45=2 - V50=3 - V55=1 - Vse=3
8.2 km
PltsNaam
Tijdkm/umin/km
1  Peter RottierKalken32.30M35   15.138  3:58
2  Martijn KoxWestdorpe33.10M35   14.834  4:03
3  Ronny WagenaerMelsele34.00M45   14.471  4:09
4  Dennis VlassenroodSint Jansteen35.34M35   13.833  4:20
5  Joris NeveEeklo36.02M45   13.654  4:24
6  Joakim van GasseSint-Pauwels36.09Mse   13.610  4:25
7  Allan van AltenAxel36.25M40   13.510  4:26
8  Ralph SchaaljeAxel36.36Mse   13.443  4:28
9  Jolien van LeugenhaegeTemse38.43Vse   12.708  4:43
10  Jos van GrembergheKoewacht39.38M60   12.414  4:50
11  Marc de KeyserMoerbeke39.39M50   12.409  4:50
12  Cliff van WaesbergheBottelare39.56Mse   12.321  4:52
13  Cathy PoppeTerneuzen40.39V40   12.103  4:57
14  Martin NoensKemzeke40.50M50   12.049  4:59
15  Matthieu VerleeSInaai41.00M35   12.000  5:00
16  Hennie DriessenAxel41.07M40   11.966  5:01
17  Stefaan HeirmanMoerbeke41.27M45   11.870  5:03
18  Danny CoenenBeveren41.35M50   11.832  5:04
19  Natasja BooijWalsoorden41.50V45   11.761  5:06
20  Inge de BooijGraauw41.52Vse   11.752  5:06
21  Philip VioenKoewacht42.15Mse   11.645  5:09
22  Patrick RoosenboomZele43.05M50   11.420  5:15
23  Dirk de BosscherLokeren43.07M45   11.411  5:15
24  Cedric de BeeldeSint-Niklaas43.13Mse   11.384  5:16
25  Wim BakkerTerneuzen43.19M65   11.358  5:17
26  Dimitri CuyversStekene43.33M40   11.297  5:19
27  Bennie BouterseTerneuzen43.38M50   11.276  5:19
28  Frits VervaetWalsoorden43.43M60   11.254  5:20
30  Peter SlockVrasene44.37M45   11.027  5:26
31  Stefan de WertClinge45.17M45   10.865  5:31
32  John MarimanClinge45.19Mse   10.857  5:32
33  Patrick PauwelsNieuw Namen45.40M50   10.774  5:34
34  Ronald RoctusTerneuzen45.43M50   10.762  5:35
35  Lieke CoenenClinge45.47Vse   10.746  5:35
36  Eef CoenenClinge46.10V40   10.657  5:38
37  Patrick CarlierErtvelde46.40M50   10.543  5:41
38  Wanda ZegersTerneuzen47.31M45   10.354  5:48
39  Ron SalomeKloosterzande48.00M55   10.250  5:51
40  Lotje BuijsTerhole48.10V35   10.215  5:52
41  Claudia PalinckPuivelde48.14Vse   10.200  5:53
42  Ronny SmetSinaai48.16M55   10.193  5:53
43  Remco EveraardKloosterzande49.23M35   9.963  6:01
44  Daan DielemanZaamslag50.36M65   9.723  6:10
45  Annelies RomboutKieldrecht50.52V60   9.672  6:12
46  Nelly PlasschaertHulst50.56V55   9.660  6:13
47  Arlette HendrickxHallaar51.16V60   9.597  6:15
48  Jean-Pierre D'hauwZelzate52.56M65   9.295  6:27
49  Margo HermansOssenisse53.11V45   9.251  6:29
50  Katrien Ras-DrumontClinge53.28V35   9.202  6:31
51  Pascale de BotClinge53.30V40   9.196  6:31
52  Antoine Mathysde Pinte55.00M70   8.945  6:42
53  Nele de LoosClinge55.59Vse   8.788  6:50
54  Claire MartensBoekhoute56.00V50   8.786  6:50
55  Mariette van GuchtSinaai56.33V65   8.700  6:54
56  Rudi van WaesbergheSint-Pauwels58.06M60   8.468  7:05
57  Rita BylBurcht58.30V60   8.410  7:08
58  Wim CoppietersStrombeek-bever1.04.09M80   7.670  7:49
59  Greta de VijlderSint-Gillis-Waas1.04.10V70   7.668  7:50
60  Annelore de BosscherLokeren1.21.14Vse   6.057  9:54
61  Aime SamsonSint-Pauwels1.21.15M65   6.055  9:55
62  Isabelle JacobsLokeren1.21.58V50   6.002  0:00
Mannen: 40 (65.57%) => M35=5 - M40=3 - M45=7 - M50=8 - M55=2 - M60=3 - M65=4 - M70=1 - M80=1 - Mse=6
Vrouwen: 21 (34.43%) => V35=2 - V40=3 - V45=2 - V50=2 - V55=1 - V60=3 - V65=1 - V70=1 - Vse=6

Snelheid en tempo zijn berekend op de vermelde afstand. Bij een onjuiste afstand wijken deze uiteraard af!

Fouten melden via info@atletiekzeeland.nl Categorie fout? Mail dan geboortedatum. (geldt alleen voor Zeeuwen)

De server had 0.2 seconden nodig om deze lijst met 110 prestaties samen te stellen.

Terug naar boven

Vorige uitslagen
DatumWedstrijdPlaatsVereniging Hits
17-12-2016 KriekeloopClingeVV Clinge0
19-12-2015 KriekeloopClingeVV Clinge741

 
Laatste reactie:
Jan Roose: Het Zwarte Gat Na De Marathon...
Recente Zeeuwse prestaties meer prestaties
21-10: 43e Amsterdam Marathon (24)
21-10: 10 van AVR Rucphen (6)
10 km Ferry Engel (PR 37.05)37.47  M55
10 km Sven Vermeulen (PR 36.39)38.08  M40
10 km Adrie Faes (PR 33.42)38.13  M55
10 km Jaco Rip (PR 40.41)42.08  M40
10 km Rene Goetheer (PR)44.13  M50
5 km Esma Guigui (PR)22.19  Vse
14-10: Linker Oevert marathon Antwerpen (5)
14-10: 35e Marathon Eindhoven (10)
07-10: 33e Singelloop Breda (41)
23-09: 34e Dam tot Damloop Amsterdam (24)
23-09: Berenloop Beernem (5)
23-09: Vestingloop Willemstad (21)
16-09: Berlin marathon Berlijn (4)
09-09: Quikrun Roosendaal (7)
09-09: Halve Marathon Oostland Pijnacker (5)
09-09: Flanders Field Marathon Ieper (4)
09-09: Münster marathon (4)
08-09: 43e Run Winschoten (3)
08-09: WK 100 km Sveti Martin na Muri (2)
02-09: 30e Tilburg Ten Miles (30)
01-09: Halve Marathon Evergem (6)
01-09: Memorial Polspoel Vilvoorde (1)
31-08: Track Meeting Utrecht (4)
28-08: 10km van Groot Steenbergen (3)
Recente video(s)
Atletiek Zeeland © 2018